Time;durP1;ratioP1;P1;durP2;ratioP2;P2;SDS_P1;SDS_P2;PMS_P1;PMS_P2;Temp;Humidity;BMP_temperature;BMP_pressure;BME280_temperature;BME280_humidity;BME280_pressure;Samples;Min_cycle;Max_cycle;Signal;HPM_P1;HPM_P2
2021/12/10 00:00:32;;;;;;;55.27;28.17;;;0.80;99.90;;;;;;5028798;28;20212;-70
2021/12/10 00:03:00;;;;;;;53.07;27.60;;;0.80;99.90;;;;;;5028669;28;20201;-69
2021/12/10 00:05:31;;;;;;;52.50;27.80;;;0.80;99.90;;;;;;5028702;28;20250;-69
2021/12/10 00:07:59;;;;;;;53.07;26.97;;;0.80;99.90;;;;;;5028447;28;20243;-69
2021/12/10 00:10:29;;;;;;;52.70;27.70;;;0.80;99.90;;;;;;5028490;28;20208;-69
2021/12/10 00:12:57;;;;;;;55.03;28.30;;;0.80;99.90;;;;;;5028502;28;20243;-69
2021/12/10 00:15:28;;;;;;;53.53;27.60;;;0.80;99.90;;;;;;5028544;28;20646;-69
2021/12/10 00:17:58;;;;;;;58.57;28.47;;;0.80;99.90;;;;;;5028379;28;20209;-69
2021/12/10 00:20:27;;;;;;;50.87;27.50;;;0.80;99.90;;;;;;5028485;28;20212;-72
2021/12/10 00:22:58;;;;;;;55.80;27.87;;;0.90;99.90;;;;;;5028433;28;20298;-72
2021/12/10 00:25:33;;;;;;;49.90;28.33;;;0.80;99.90;;;;;;5028190;28;20204;-71
2021/12/10 00:28:12;;;;;;;52.90;25.97;;;0.80;99.90;;;;;;5028092;28;20196;-71
2021/12/10 00:30:48;;;;;;;53.60;27.23;;;0.80;99.90;;;;;;5028319;28;20379;-71
2021/12/10 00:33:20;;;;;;;53.70;26.77;;;0.80;99.90;;;;;;5028479;28;20192;-72
2021/12/10 00:35:48;;;;;;;51.67;26.50;;;0.80;99.90;;;;;;5028191;28;20204;-71
2021/12/10 00:38:15;;;;;;;48.47;26.43;;;0.80;99.90;;;;;;5027935;28;20663;-72
2021/12/10 00:40:43;;;;;;;50.90;26.40;;;0.80;99.90;;;;;;5027695;28;20205;-72
2021/12/10 00:43:11;;;;;;;46.27;24.43;;;0.80;99.90;;;;;;5027576;28;20204;-71
2021/12/10 00:45:38;;;;;;;48.40;26.07;;;0.80;99.90;;;;;;5027082;28;20278;-71
2021/12/10 00:48:05;;;;;;;47.00;26.43;;;0.80;99.90;;;;;;5027479;28;20766;-70
2021/12/10 00:50:36;;;;;;;51.37;26.57;;;0.80;99.90;;;;;;5027526;28;20769;-70
2021/12/10 00:53:04;;;;;;;50.43;26.07;;;0.80;99.90;;;;;;5027896;28;20236;-70
2021/12/10 00:55:31;;;;;;;47.23;25.90;;;0.80;99.90;;;;;;5027897;28;20580;-70
2021/12/10 00:58:00;;;;;;;53.87;27.43;;;0.80;99.90;;;;;;5028058;28;20209;-70
2021/12/10 01:00:34;;;;;;;50.17;26.23;;;0.80;99.90;;;;;;5027696;28;20250;-70
2021/12/10 01:03:03;;;;;;;49.93;26.57;;;0.80;99.90;;;;;;5027830;28;20223;-70
2021/12/10 01:05:31;;;;;;;48.20;26.90;;;0.80;99.90;;;;;;5027907;28;20212;-70
2021/12/10 01:07:58;;;;;;;47.23;26.13;;;0.80;99.90;;;;;;5027357;28;20225;-70
2021/12/10 01:10:28;;;;;;;47.00;26.57;;;0.80;99.90;;;;;;5027462;28;20237;-70
2021/12/10 01:12:57;;;;;;;53.87;27.43;;;0.80;99.90;;;;;;5028075;28;20263;-70
2021/12/10 01:15:47;;;;;;;51.70;26.77;;;0.80;99.90;;;;;;5027995;28;20556;-70
2021/12/10 01:23:54;;;;;;;46.60;26.27;;;0.80;99.90;;;;;;5027564;28;20651;-70
2021/12/10 01:26:40;;;;;;;51.10;26.40;;;0.80;99.90;;;;;;5027929;28;20193;-71
2021/12/10 01:29:08;;;;;;;45.87;25.47;;;0.80;99.90;;;;;;5027528;28;20679;-71
2021/12/10 01:31:38;;;;;;;48.73;26.67;;;0.80;99.90;;;;;;5027714;28;20254;-72
2021/12/10 01:34:06;;;;;;;49.50;26.43;;;0.80;99.90;;;;;;5029491;28;20212;-72
2021/12/10 01:36:34;;;;;;;46.77;25.57;;;0.80;99.90;;;;;;5031457;28;20549;-72
2021/12/10 01:39:01;;;;;;;48.17;25.40;;;0.80;99.90;;;;;;5031258;28;20224;-72
2021/12/10 01:41:34;;;;;;;46.07;26.43;;;0.80;99.90;;;;;;5031448;28;20208;-71
2021/12/10 01:44:04;;;;;;;46.93;25.30;;;0.70;99.90;;;;;;5031081;28;20727;-71
2021/12/10 01:46:38;;;;;;;48.40;25.83;;;0.70;99.90;;;;;;5031023;28;20854;-71
2021/12/10 01:49:07;;;;;;;42.73;24.77;;;0.70;99.90;;;;;;5030848;28;20706;-71
2021/12/10 01:51:36;;;;;;;45.17;25.13;;;0.80;99.90;;;;;;5031163;28;20254;-71
2021/12/10 01:54:06;;;;;;;49.63;25.67;;;0.70;99.90;;;;;;5030873;28;20776;-71
2021/12/10 01:56:35;;;;;;;47.13;26.37;;;0.70;99.90;;;;;;5030786;28;20718;-71
2021/12/10 01:59:04;;;;;;;46.73;26.47;;;0.80;99.90;;;;;;5031037;28;20559;-71
2021/12/10 02:01:33;;;;;;;45.10;26.33;;;0.80;99.90;;;;;;5031105;28;20208;-71
2021/12/10 02:04:03;;;;;;;49.40;25.63;;;0.80;99.90;;;;;;5030900;28;20205;-69
2021/12/10 02:06:32;;;;;;;46.37;26.43;;;0.80;99.90;;;;;;5030941;28;20316;-71
2021/12/10 02:08:59;;;;;;;43.67;24.50;;;0.70;99.90;;;;;;5030775;28;20699;-71
2021/12/10 02:11:25;;;;;;;45.93;25.20;;;0.70;99.90;;;;;;5030774;28;20258;-71
2021/12/10 02:13:52;;;;;;;44.57;26.97;;;0.70;99.90;;;;;;5030718;28;20683;-71
2021/12/10 02:16:19;;;;;;;46.67;25.50;;;0.80;99.90;;;;;;5030548;28;20201;-71
2021/12/10 02:18:48;;;;;;;46.37;26.03;;;0.70;99.90;;;;;;5030681;28;20208;-70
2021/12/10 02:21:19;;;;;;;49.60;25.17;;;0.70;99.90;;;;;;5030020;28;20663;-70
2021/12/10 02:23:50;;;;;;;46.47;25.83;;;0.70;99.90;;;;;;5030411;28;20233;-70
2021/12/10 02:26:17;;;;;;;50.90;26.33;;;0.80;99.90;;;;;;5030649;28;20212;-70
2021/12/10 02:28:45;;;;;;;48.93;27.23;;;0.70;99.90;;;;;;5030470;28;20243;-70
2021/12/10 02:31:13;;;;;;;50.47;26.87;;;0.80;99.90;;;;;;5030528;28;20213;-70
2021/12/10 02:33:40;;;;;;;45.80;26.40;;;0.80;99.90;;;;;;5030113;28;20205;-70
2021/12/10 02:36:11;;;;;;;46.63;26.20;;;0.80;99.90;;;;;;5030459;28;20572;-70
2021/12/10 02:38:40;;;;;;;50.63;27.90;;;0.70;99.90;;;;;;5029883;28;20220;-71
2021/12/10 02:41:08;;;;;;;55.57;27.77;;;0.70;99.90;;;;;;5030169;28;20205;-71
2021/12/10 02:43:34;;;;;;;53.57;28.50;;;0.80;99.90;;;;;;5030139;28;20220;-70
2021/12/10 02:46:04;;;;;;;48.20;26.47;;;0.80;99.90;;;;;;5028899;28;20228;-71
2021/12/10 02:48:31;;;;;;;51.23;27.33;;;0.80;99.90;;;;;;5029487;28;20873;-71
2021/12/10 02:50:59;;;;;;;48.97;27.03;;;0.70;99.90;;;;;;5029806;28;21080;-71
2021/12/10 02:53:29;;;;;;;53.90;26.83;;;0.70;99.90;;;;;;5029871;28;20241;-71
2021/12/10 02:55:59;;;;;;;48.33;26.27;;;0.70;99.90;;;;;;5030101;28;20299;-72
2021/12/10 02:58:27;;;;;;;49.07;27.33;;;0.70;99.90;;;;;;5029956;28;20288;-71
2021/12/10 03:00:58;;;;;;;52.37;26.73;;;0.70;99.90;;;;;;5029709;28;20282;-71
2021/12/10 03:03:25;;;;;;;50.27;27.13;;;0.80;99.90;;;;;;5029576;28;20639;-72
2021/12/10 03:05:53;;;;;;;50.83;28.10;;;0.80;99.90;;;;;;5029795;28;20296;-71
2021/12/10 03:08:20;;;;;;;50.87;26.40;;;0.70;99.90;;;;;;5029603;28;20734;-71
2021/12/10 03:10:47;;;;;;;52.37;26.40;;;0.80;99.90;;;;;;5029517;28;20290;-71
2021/12/10 03:13:15;;;;;;;48.30;26.27;;;0.80;99.90;;;;;;5029923;28;20300;-71
2021/12/10 03:15:42;;;;;;;54.97;27.67;;;0.80;99.90;;;;;;5029554;28;20217;-71
2021/12/10 03:18:15;;;;;;;48.37;27.63;;;0.70;99.90;;;;;;5025316;28;20198;-72
2021/12/10 03:20:42;;;;;;;50.90;27.23;;;0.70;99.90;;;;;;5024929;28;20275;-72
2021/12/10 03:23:09;;;;;;;49.43;26.60;;;0.70;99.90;;;;;;5029453;28;20229;-71
2021/12/10 03:25:36;;;;;;;51.30;27.90;;;0.70;99.90;;;;;;5029178;28;20291;-70
2021/12/10 03:28:04;;;;;;;51.93;27.70;;;0.70;99.90;;;;;;5029336;28;20212;-70
2021/12/10 03:30:35;;;;;;;48.80;26.57;;;0.70;99.90;;;;;;5028618;28;20282;-70
2021/12/10 03:33:02;;;;;;;49.60;27.37;;;0.70;99.90;;;;;;5005469;28;20224;-70
2021/12/10 03:35:33;;;;;;;49.50;26.83;;;0.70;99.90;;;;;;5005396;28;20755;-70
2021/12/10 03:38:01;;;;;;;49.23;25.90;;;0.70;99.90;;;;;;5006536;28;20213;-70
2021/12/10 03:40:29;;;;;;;48.27;26.33;;;0.70;99.90;;;;;;5005731;28;20209;-70
2021/12/10 03:42:58;;;;;;;50.17;27.03;;;0.80;99.90;;;;;;5006932;28;20213;-70
2021/12/10 03:45:27;;;;;;;55.20;28.50;;;0.70;99.90;;;;;;5025118;28;20279;-70
2021/12/10 03:47:55;;;;;;;56.97;29.07;;;0.70;99.90;;;;;;5025172;28;20233;-70
2021/12/10 03:50:26;;;;;;;49.00;27.00;;;0.80;99.90;;;;;;5024592;28;20860;-70
2021/12/10 03:52:53;;;;;;;48.33;25.93;;;0.80;99.90;;;;;;5024564;28;20240;-70
2021/12/10 03:55:21;;;;;;;52.97;27.97;;;0.80;99.90;;;;;;5024238;28;20823;-70
2021/12/10 03:57:48;;;;;;;52.93;27.37;;;0.80;99.90;;;;;;5024196;28;20239;-73
2021/12/10 04:00:17;;;;;;;51.43;27.77;;;0.80;99.90;;;;;;5024635;28;20232;-72
2021/12/10 04:02:44;;;;;;;51.20;27.07;;;0.80;99.90;;;;;;5024771;28;20349;-72
2021/12/10 04:05:13;;;;;;;53.40;27.80;;;0.80;99.90;;;;;;5024621;28;20208;-71
2021/12/10 04:07:40;;;;;;;50.60;26.90;;;0.80;99.90;;;;;;5024215;28;20220;-71
2021/12/10 04:10:10;;;;;;;51.40;26.87;;;0.80;99.90;;;;;;5027485;28;20243;-70
2021/12/10 04:12:37;;;;;;;50.10;27.03;;;0.80;99.90;;;;;;5027467;28;20635;-70
2021/12/10 04:15:05;;;;;;;49.00;26.83;;;0.80;99.90;;;;;;5026972;28;20258;-70
2021/12/10 04:17:32;;;;;;;49.17;27.07;;;0.80;99.90;;;;;;5028060;28;20213;-70
2021/12/10 04:19:59;;;;;;;51.33;27.40;;;0.80;99.90;;;;;;5028136;28;20566;-70
2021/12/10 04:22:32;;;;;;;50.03;27.73;;;0.80;99.90;;;;;;5028168;28;20228;-70
2021/12/10 04:24:59;;;;;;;51.77;27.53;;;0.80;99.90;;;;;;5028407;28;20193;-70
2021/12/10 04:27:26;;;;;;;51.13;26.47;;;0.70;99.90;;;;;;5028203;28;20231;-70
2021/12/10 04:29:56;;;;;;;47.87;27.30;;;0.80;99.90;;;;;;5028300;28;20232;-70
2021/12/10 04:32:24;;;;;;;53.60;26.87;;;0.70;99.90;;;;;;5028350;28;20224;-70
2021/12/10 04:34:51;;;;;;;47.57;26.43;;;0.80;99.90;;;;;;5027959;28;20577;-70
2021/12/10 04:37:18;;;;;;;51.30;27.60;;;0.80;99.90;;;;;;5028337;28;20220;-70
2021/12/10 04:39:48;;;;;;;51.00;27.47;;;0.80;99.90;;;;;;5028030;28;20200;-70
2021/12/10 04:42:19;;;;;;;48.07;26.43;;;0.80;99.90;;;;;;5028226;28;20196;-70
2021/12/10 04:44:46;;;;;;;47.90;25.97;;;0.80;99.90;;;;;;5027926;28;20232;-70
2021/12/10 04:47:12;;;;;;;50.43;26.83;;;0.80;99.90;;;;;;5028222;28;20290;-70
2021/12/10 04:49:39;;;;;;;52.27;27.13;;;0.80;99.90;;;;;;5027897;28;20232;-70
2021/12/10 04:52:07;;;;;;;45.50;25.03;;;0.80;99.90;;;;;;5028023;28;20668;-70
2021/12/10 04:54:35;;;;;;;48.47;26.23;;;0.90;99.90;;;;;;5028060;28;20262;-70
2021/12/10 04:57:05;;;;;;;51.40;26.63;;;0.80;99.90;;;;;;5028180;28;20298;-70
2021/12/10 04:59:34;;;;;;;54.40;27.33;;;0.90;99.90;;;;;;5027894;28;20267;-70
2021/12/10 05:02:02;;;;;;;53.23;27.43;;;0.90;99.90;;;;;;5028003;28;20212;-70
2021/12/10 05:04:31;;;;;;;53.20;26.80;;;0.90;99.90;;;;;;5027912;28;20205;-70
2021/12/10 05:06:59;;;;;;;51.10;27.20;;;0.90;99.90;;;;;;5027609;28;20241;-70
2021/12/10 05:09:26;;;;;;;52.00;26.03;;;0.80;99.90;;;;;;5030073;28;20208;-70
2021/12/10 05:11:54;;;;;;;56.23;27.67;;;0.80;99.90;;;;;;5031884;28;20212;-70
2021/12/10 05:14:22;;;;;;;49.53;25.87;;;0.90;99.90;;;;;;5031972;28;20258;-70
2021/12/10 05:16:50;;;;;;;50.67;28.17;;;0.90;99.90;;;;;;5031515;28;20236;-70
2021/12/10 05:19:23;;;;;;;54.10;28.10;;;0.90;99.90;;;;;;5031313;28;20212;-70
2021/12/10 05:21:51;;;;;;;49.00;26.23;;;0.80;99.90;;;;;;5031341;28;20638;-70
2021/12/10 05:24:18;;;;;;;55.30;28.57;;;0.90;99.90;;;;;;5031373;28;21070;-70
2021/12/10 05:26:46;;;;;;;49.60;27.13;;;0.80;99.90;;;;;;5031639;28;20213;-70
2021/12/10 05:29:14;;;;;;;48.37;26.37;;;0.80;99.90;;;;;;5031634;28;20247;-70
2021/12/10 05:31:44;;;;;;;51.93;27.30;;;0.90;99.90;;;;;;5031234;28;20275;-70
2021/12/10 05:34:11;;;;;;;53.17;27.30;;;0.90;99.90;;;;;;5031719;28;20193;-70
2021/12/10 05:36:41;;;;;;;50.57;27.10;;;0.90;99.90;;;;;;5031456;28;20262;-70
2021/12/10 05:39:09;;;;;;;50.90;26.07;;;0.90;99.90;;;;;;5031303;28;20205;-70
2021/12/10 05:41:36;;;;;;;53.67;28.60;;;0.90;99.90;;;;;;5030841;28;21046;-70
2021/12/10 05:44:04;;;;;;;48.63;27.30;;;0.90;99.90;;;;;;5031199;28;20236;-71
2021/12/10 05:46:32;;;;;;;51.90;26.73;;;0.90;99.90;;;;;;5030846;28;20228;-71
2021/12/10 05:49:01;;;;;;;52.83;27.47;;;0.90;99.90;;;;;;5031006;28;20211;-71
2021/12/10 05:51:28;;;;;;;48.60;27.37;;;0.90;99.90;;;;;;5030857;28;20282;-71
2021/12/10 05:53:55;;;;;;;49.53;27.13;;;0.90;99.90;;;;;;5030632;28;20232;-71
2021/12/10 05:56:21;;;;;;;51.80;27.40;;;0.90;99.90;;;;;;5031263;28;20278;-71
2021/12/10 05:58:48;;;;;;;56.77;28.60;;;0.90;99.90;;;;;;5030972;28;20208;-71
2021/12/10 06:01:18;;;;;;;52.40;27.83;;;0.90;99.90;;;;;;5031130;28;20223;-71
2021/12/10 06:03:52;;;;;;;54.10;29.07;;;0.90;99.90;;;;;;5030841;28;20209;-70
2021/12/10 06:06:21;;;;;;;51.23;28.17;;;0.90;99.90;;;;;;5030911;28;20251;-71
2021/12/10 06:08:49;;;;;;;55.43;28.90;;;0.90;99.90;;;;;;5029963;28;20574;-70
2021/12/10 06:11:16;;;;;;;52.60;28.33;;;0.90;99.90;;;;;;5030770;28;20237;-71
2021/12/10 06:13:43;;;;;;;48.40;27.40;;;0.90;99.90;;;;;;5030499;28;20212;-71
2021/12/10 06:16:10;;;;;;;57.33;28.50;;;0.90;99.90;;;;;;5030546;28;20971;-70
2021/12/10 06:18:37;;;;;;;52.30;29.10;;;0.90;99.90;;;;;;5030710;28;20209;-71
2021/12/10 06:21:07;;;;;;;52.47;28.13;;;1.00;99.90;;;;;;5030133;28;20213;-71
2021/12/10 06:23:36;;;;;;;51.23;28.07;;;0.90;99.90;;;;;;5030454;28;20200;-71
2021/12/10 06:26:07;;;;;;;57.03;29.23;;;0.90;99.90;;;;;;5030691;28;20256;-71
2021/12/10 06:28:36;;;;;;;51.17;28.07;;;0.90;99.90;;;;;;5030124;28;20648;-71
2021/12/10 06:31:05;;;;;;;48.63;28.20;;;0.90;99.90;;;;;;5030145;28;20605;-71
2021/12/10 06:33:32;;;;;;;54.87;28.43;;;0.90;99.90;;;;;;5030110;28;20587;-71
2021/12/10 06:36:05;;;;;;;53.30;29.13;;;0.90;99.90;;;;;;5030082;28;20660;-71
2021/12/10 06:38:36;;;;;;;56.20;28.87;;;0.90;99.90;;;;;;5030246;28;20201;-71
2021/12/10 06:41:05;;;;;;;55.07;28.53;;;0.90;99.90;;;;;;5030286;28;20231;-71
2021/12/10 06:43:32;;;;;;;54.57;29.20;;;0.90;99.90;;;;;;5029677;28;20703;-71
2021/12/10 06:46:09;;;;;;;51.53;27.80;;;0.90;99.90;;;;;;5030050;28;20225;-71
2021/12/10 06:48:37;;;;;;;56.67;27.20;;;0.90;99.90;;;;;;5029838;28;20196;-71
2021/12/10 06:51:09;;;;;;;50.57;27.90;;;0.90;99.90;;;;;;5030141;28;20298;-70
2021/12/10 06:53:40;;;;;;;53.80;27.30;;;0.90;99.90;;;;;;5029801;28;20239;-71
2021/12/10 06:56:07;;;;;;;54.03;27.70;;;0.90;99.90;;;;;;5030122;28;20189;-70
2021/12/10 06:58:35;;;;;;;51.20;27.80;;;0.90;99.90;;;;;;5029508;28;20262;-71
2021/12/10 07:01:06;;;;;;;53.83;28.83;;;0.90;99.90;;;;;;5029739;28;20208;-70
2021/12/10 07:03:34;;;;;;;50.67;27.77;;;0.90;99.90;;;;;;5029475;28;20193;-71
2021/12/10 07:06:05;;;;;;;54.83;28.60;;;0.90;99.90;;;;;;5029786;28;20278;-71
2021/12/10 07:08:38;;;;;;;53.23;28.33;;;0.90;99.90;;;;;;5029139;28;20640;-71
2021/12/10 07:11:11;;;;;;;59.70;28.43;;;0.90;99.90;;;;;;5029327;28;20753;-70
2021/12/10 07:13:39;;;;;;;51.37;27.37;;;1.00;99.90;;;;;;5029795;28;20196;-70
2021/12/10 07:16:07;;;;;;;53.63;29.03;;;1.00;99.90;;;;;;5029779;28;20362;-71
2021/12/10 07:18:36;;;;;;;55.73;29.00;;;1.00;99.90;;;;;;5029723;28;20693;-71
2021/12/10 07:21:06;;;;;;;53.87;29.10;;;1.00;99.90;;;;;;5029175;28;20237;-70
2021/12/10 07:23:36;;;;;;;53.47;28.00;;;1.00;99.90;;;;;;5029440;28;20254;-71
2021/12/10 07:26:07;;;;;;;56.97;29.90;;;1.00;99.90;;;;;;5029485;28;20193;-71
2021/12/10 07:28:33;;;;;;;52.67;29.50;;;1.10;99.90;;;;;;5029619;28;20208;-70
2021/12/10 07:31:01;;;;;;;54.67;28.67;;;1.10;99.90;;;;;;5028531;28;20286;-70
2021/12/10 07:33:28;;;;;;;58.40;29.50;;;1.10;99.90;;;;;;5028903;28;20262;-71
2021/12/10 07:35:55;;;;;;;58.17;29.70;;;1.10;99.90;;;;;;5028896;28;20259;-71
2021/12/10 07:38:25;;;;;;;51.13;28.33;;;1.10;99.90;;;;;;5028859;28;20822;-71
2021/12/10 07:40:53;;;;;;;55.30;29.13;;;1.10;99.90;;;;;;5029103;28;20286;-70
2021/12/10 07:43:24;;;;;;;59.40;30.03;;;1.10;99.90;;;;;;5029042;28;20283;-71
2021/12/10 07:45:52;;;;;;;58.67;29.90;;;1.10;99.90;;;;;;5028782;28;20228;-71
2021/12/10 07:48:20;;;;;;;60.57;31.17;;;1.10;99.90;;;;;;5029184;28;20263;-71
2021/12/10 07:50:53;;;;;;;58.80;29.97;;;1.10;99.90;;;;;;5028724;28;20588;-71
2021/12/10 07:53:20;;;;;;;56.93;31.17;;;1.00;99.90;;;;;;5028439;28;20232;-71
2021/12/10 07:55:50;;;;;;;60.67;31.13;;;1.10;99.90;;;;;;5028665;28;20569;-71
2021/12/10 07:58:17;;;;;;;62.93;31.73;;;1.10;99.90;;;;;;5028954;28;20209;-71
2021/12/10 08:00:47;;;;;;;63.57;31.20;;;1.10;99.90;;;;;;5028329;28;20680;-70
2021/12/10 08:03:14;;;;;;;57.83;30.63;;;1.10;99.90;;;;;;5028999;28;20208;-71
2021/12/10 08:05:42;;;;;;;65.10;31.73;;;1.10;99.90;;;;;;5028243;28;20229;-70
2021/12/10 08:08:10;;;;;;;61.87;31.43;;;1.10;99.90;;;;;;5028375;28;20667;-71
2021/12/10 08:10:39;;;;;;;68.13;32.63;;;1.10;99.90;;;;;;5028402;28;20212;-71
2021/12/10 08:13:06;;;;;;;58.37;30.87;;;1.10;99.90;;;;;;5028349;28;20664;-71
2021/12/10 08:15:33;;;;;;;64.47;32.23;;;1.20;99.90;;;;;;5028311;28;20224;-71
2021/12/10 08:18:01;;;;;;;65.13;32.37;;;1.20;99.90;;;;;;5028530;28;20657;-70
2021/12/10 08:20:29;;;;;;;63.23;31.50;;;1.20;99.90;;;;;;5028144;28;20279;-71
2021/12/10 08:23:02;;;;;;;65.20;32.27;;;1.20;99.90;;;;;;5028313;28;20232;-71
2021/12/10 08:25:29;;;;;;;63.73;32.27;;;1.20;99.90;;;;;;5028270;28;20193;-70
2021/12/10 08:27:57;;;;;;;67.30;32.93;;;1.20;99.90;;;;;;5028266;28;20568;-70
2021/12/10 08:30:26;;;;;;;65.50;31.67;;;1.20;99.90;;;;;;5028377;28;20201;-71
2021/12/10 08:32:55;;;;;;;71.87;34.20;;;1.20;99.90;;;;;;5028372;28;20216;-70
2021/12/10 08:35:27;;;;;;;67.90;33.73;;;1.20;99.90;;;;;;5027992;28;20205;-71
2021/12/10 08:37:54;;;;;;;69.43;31.80;;;1.20;99.90;;;;;;5028003;28;20539;-71
2021/12/10 08:40:24;;;;;;;70.10;32.23;;;1.20;99.90;;;;;;5028161;28;20371;-70
2021/12/10 08:42:52;;;;;;;68.33;32.60;;;1.20;99.90;;;;;;5027749;28;20245;-70
2021/12/10 08:45:20;;;;;;;68.27;32.77;;;1.20;99.90;;;;;;5027998;28;20319;-71
2021/12/10 08:47:48;;;;;;;66.90;33.43;;;1.30;99.90;;;;;;5027817;28;20258;-71
2021/12/10 08:50:16;;;;;;;70.97;33.67;;;1.30;99.90;;;;;;5027846;28;20209;-71
2021/12/10 08:52:45;;;;;;;66.63;32.93;;;1.20;99.90;;;;;;5027381;28;20307;-70
2021/12/10 08:55:12;;;;;;;67.97;32.10;;;1.30;99.90;;;;;;5028101;28;20196;-70
2021/12/10 08:57:39;;;;;;;70.60;33.00;;;1.30;99.90;;;;;;5028033;28;20209;-71
2021/12/10 09:00:09;;;;;;;66.63;30.80;;;1.30;99.90;;;;;;5027844;28;20988;-70
2021/12/10 09:02:37;;;;;;;67.23;32.20;;;1.30;99.90;;;;;;5028097;28;20222;-70
2021/12/10 09:05:05;;;;;;;63.97;32.93;;;1.30;99.90;;;;;;5027673;28;20238;-71
2021/12/10 09:07:32;;;;;;;71.20;33.40;;;1.30;99.90;;;;;;5027596;28;20205;-70
2021/12/10 09:10:01;;;;;;;71.17;34.20;;;1.30;99.90;;;;;;5027445;28;20200;-71
2021/12/10 09:12:28;;;;;;;70.20;34.67;;;1.30;99.90;;;;;;5027237;28;20761;-70
2021/12/10 09:15:01;;;;;;;72.27;34.20;;;1.30;99.90;;;;;;5027707;28;20670;-70
2021/12/10 09:17:32;;;;;;;70.13;33.70;;;1.30;99.90;;;;;;5027620;28;20207;-71
2021/12/10 09:20:03;;;;;;;67.80;33.30;;;1.30;99.90;;;;;;5027758;28;20239;-70
2021/12/10 09:22:31;;;;;;;65.50;32.27;;;1.30;99.90;;;;;;5027898;28;20197;-71
2021/12/10 09:25:02;;;;;;;68.33;32.90;;;1.40;99.90;;;;;;5027859;28;20209;-71
2021/12/10 09:27:29;;;;;;;62.17;32.23;;;1.40;99.90;;;;;;5027736;28;20259;-71
2021/12/10 09:29:57;;;;;;;66.67;32.73;;;1.40;99.90;;;;;;5027628;28;20600;-71
2021/12/10 09:32:26;;;;;;;63.43;31.73;;;1.50;99.90;;;;;;5027459;28;21052;-70
2021/12/10 09:34:56;;;;;;;65.13;32.37;;;1.50;99.90;;;;;;5027334;28;20204;-70
2021/12/10 09:37:24;;;;;;;64.97;32.27;;;1.40;99.90;;;;;;5027673;28;20280;-70
2021/12/10 09:39:51;;;;;;;67.13;32.30;;;1.50;99.90;;;;;;5027497;28;20215;-70
2021/12/10 09:42:22;;;;;;;73.30;33.13;;;1.60;99.90;;;;;;5027610;28;20236;-71
2021/12/10 09:44:51;;;;;;;68.23;33.07;;;1.60;99.90;;;;;;5027377;28;20228;-71
2021/12/10 09:47:18;;;;;;;63.50;31.23;;;1.60;99.90;;;;;;5027508;28;20266;-71
2021/12/10 09:49:48;;;;;;;62.57;32.27;;;1.60;99.90;;;;;;5027414;28;20220;-70
2021/12/10 09:52:20;;;;;;;64.27;31.30;;;1.60;99.90;;;;;;5027155;28;20267;-71
2021/12/10 09:54:47;;;;;;;65.60;30.63;;;1.60;99.90;;;;;;5028707;28;20193;-70
2021/12/10 09:57:17;;;;;;;64.73;33.13;;;1.60;99.90;;;;;;5031145;28;20208;-71
2021/12/10 09:59:49;;;;;;;66.33;33.57;;;1.60;99.90;;;;;;5030687;28;20201;-71
2021/12/10 10:02:16;;;;;;;74.53;33.17;;;1.60;99.90;;;;;;5030853;28;20771;-70
2021/12/10 10:04:48;;;;;;;65.27;30.77;;;1.60;99.90;;;;;;5030708;28;20228;-71
2021/12/10 10:07:18;;;;;;;55.20;28.73;;;1.60;99.90;;;;;;5030900;28;20193;-70
2021/12/10 10:09:48;;;;;;;62.77;30.37;;;1.60;99.90;;;;;;5030999;28;20250;-71
2021/12/10 10:12:20;;;;;;;63.90;30.87;;;1.60;99.90;;;;;;5030839;28;20217;-71
2021/12/10 10:14:49;;;;;;;64.07;30.97;;;1.60;99.90;;;;;;5030280;28;20205;-70
2021/12/10 10:17:17;;;;;;;63.17;30.40;;;1.60;99.90;;;;;;5030591;28;20213;-71
2021/12/10 10:19:45;;;;;;;63.40;32.13;;;1.70;99.90;;;;;;5030501;28;20209;-70
2021/12/10 10:22:14;;;;;;;66.83;31.73;;;1.60;99.90;;;;;;5030486;28;20247;-70
2021/12/10 10:24:42;;;;;;;65.10;31.70;;;1.60;99.90;;;;;;5030464;28;20644;-71
2021/12/10 10:27:12;;;;;;;62.47;30.83;;;1.60;99.90;;;;;;5030589;28;20299;-70
2021/12/10 10:29:42;;;;;;;62.67;30.77;;;1.60;99.90;;;;;;5030688;28;20193;-70
2021/12/10 10:32:17;;;;;;;59.50;30.50;;;1.60;99.90;;;;;;5029862;28;20243;-70
2021/12/10 10:34:46;;;;;;;60.17;29.23;;;1.60;99.90;;;;;;5030608;28;20200;-70
2021/12/10 10:37:14;;;;;;;60.53;30.73;;;1.60;99.90;;;;;;5030542;28;20209;-70
2021/12/10 10:39:43;;;;;;;65.23;30.93;;;1.60;99.90;;;;;;5030138;28;20254;-71
2021/12/10 10:42:14;;;;;;;66.27;30.47;;;1.60;99.90;;;;;;5030171;28;20256;-70
2021/12/10 10:44:42;;;;;;;64.50;30.30;;;1.60;99.90;;;;;;5029642;28;20286;-70
2021/12/10 10:47:10;;;;;;;62.70;31.33;;;1.60;99.90;;;;;;5030361;28;20651;-71
2021/12/10 10:49:41;;;;;;;65.50;31.47;;;1.60;99.90;;;;;;5029947;28;20208;-70
2021/12/10 10:52:23;;;;;;;65.47;30.97;;;1.70;99.90;;;;;;5030046;28;20225;-71
2021/12/10 10:54:53;;;;;;;60.00;30.17;;;1.60;99.90;;;;;;5030130;28;20197;-71
2021/12/10 10:57:24;;;;;;;58.83;30.37;;;1.70;99.90;;;;;;5030295;28;20193;-70
2021/12/10 10:59:56;;;;;;;62.37;29.80;;;1.70;99.90;;;;;;5029614;28;20193;-71
2021/12/10 11:02:26;;;;;;;63.33;30.30;;;1.70;99.90;;;;;;5030027;28;20194;-71
2021/12/10 11:04:54;;;;;;;62.90;29.73;;;1.70;99.90;;;;;;5029543;28;20615;-71
2021/12/10 11:07:23;;;;;;;61.67;29.20;;;1.70;99.90;;;;;;5029171;28;20209;-70
2021/12/10 11:09:53;;;;;;;58.50;29.10;;;1.70;99.90;;;;;;5029309;28;20692;-71
2021/12/10 11:12:23;;;;;;;69.53;30.03;;;1.70;99.90;;;;;;5030084;28;20347;-71
2021/12/10 11:14:52;;;;;;;61.10;29.33;;;1.70;99.90;;;;;;5029677;28;20211;-70
2021/12/10 11:17:27;;;;;;;62.93;29.97;;;1.70;99.90;;;;;;5029858;28;20279;-70
2021/12/10 11:19:58;;;;;;;58.40;26.63;;;1.70;99.90;;;;;;5029075;28;20726;-70
2021/12/10 11:22:26;;;;;;;59.57;28.67;;;1.70;99.90;;;;;;5029724;28;20197;-70
2021/12/10 11:24:56;;;;;;;58.13;28.83;;;1.70;99.90;;;;;;5029593;28;20263;-71
2021/12/10 11:27:28;;;;;;;55.40;28.43;;;1.80;99.90;;;;;;5029912;28;20205;-71
2021/12/10 11:30:04;;;;;;;53.03;26.13;;;1.80;99.90;;;;;;5029724;28;20605;-70
2021/12/10 11:32:35;;;;;;;53.83;27.63;;;1.80;99.90;;;;;;5028939;28;20423;-71
2021/12/10 11:35:12;;;;;;;56.07;28.10;;;1.80;99.90;;;;;;5029124;28;20189;-71
2021/12/10 11:37:48;;;;;;;54.23;27.67;;;1.80;99.90;;;;;;5029246;28;20197;-70
2021/12/10 11:40:48;;;;;;;56.50;28.83;;;1.80;99.90;;;;;;5029578;28;20192;-70
2021/12/10 11:43:43;;;;;;;61.00;29.30;;;1.80;99.90;;;;;;5029132;28;21004;-70
2021/12/10 11:46:29;;;;;;;55.53;27.33;;;1.80;99.90;;;;;;5029008;28;20224;-71
2021/12/10 11:49:08;;;;;;;48.03;25.80;;;1.90;99.90;;;;;;5029371;28;20637;-71
2021/12/10 11:51:40;;;;;;;53.37;25.70;;;1.80;99.90;;;;;;5028921;28;20543;-71
2021/12/10 11:54:15;;;;;;;54.73;28.07;;;1.90;99.90;;;;;;5028328;28;21059;-71
2021/12/10 11:56:45;;;;;;;52.63;26.60;;;1.90;99.90;;;;;;5028687;28;20219;-71
2021/12/10 11:59:14;;;;;;;52.37;27.37;;;1.90;99.90;;;;;;5028576;28;20718;-71
2021/12/10 12:01:48;;;;;;;55.03;26.70;;;1.90;99.90;;;;;;5028753;28;20307;-71
2021/12/10 12:04:20;;;;;;;52.07;27.67;;;1.90;99.90;;;;;;5028796;28;20233;-70
2021/12/10 12:07:09;;;;;;;52.70;25.90;;;1.90;99.90;;;;;;5028648;28;20271;-71
2021/12/10 12:09:40;;;;;;;48.67;25.53;;;2.00;99.90;;;;;;5028060;28;20213;-71
2021/12/10 12:12:13;;;;;;;50.17;26.13;;;2.00;99.90;;;;;;5028564;28;20225;-71
2021/12/10 12:14:47;;;;;;;53.17;26.00;;;2.00;99.90;;;;;;5028372;28;20243;-71
2021/12/10 12:17:33;;;;;;;52.63;26.87;;;2.10;99.90;;;;;;5028108;28;20220;-71
2021/12/10 12:20:00;;;;;;;57.27;26.27;;;2.00;99.90;;;;;;5028456;28;20227;-69
2021/12/10 12:25:27;;;;;;;55.03;26.47;;;2.10;99.90;;;;;;5028332;28;20219;-69
2021/12/10 12:28:03;;;;;;;54.33;27.33;;;2.10;99.90;;;;;;5028554;28;20201;-68
2021/12/10 12:30:30;;;;;;;56.30;28.00;;;2.10;99.90;;;;;;5028351;28;20386;-69
2021/12/10 12:32:58;;;;;;;58.80;28.97;;;2.10;99.90;;;;;;5028487;28;20236;-68
2021/12/10 12:35:30;;;;;;;59.30;28.77;;;2.10;99.90;;;;;;5028292;28;20209;-70
2021/12/10 12:38:10;;;;;;;52.30;27.63;;;2.20;99.90;;;;;;5028379;28;20207;-70
2021/12/10 12:40:38;;;;;;;54.47;28.10;;;2.20;99.90;;;;;;5027944;28;20737;-69
2021/12/10 12:43:06;;;;;;;53.17;26.77;;;2.20;99.90;;;;;;5027835;28;21058;-70
2021/12/10 12:45:35;;;;;;;49.43;26.37;;;2.20;99.90;;;;;;5028083;28;20890;-69
2021/12/10 12:48:07;;;;;;;55.97;27.63;;;2.20;99.90;;;;;;5028049;28;20659;-70
2021/12/10 12:50:36;;;;;;;51.70;26.87;;;2.20;99.90;;;;;;5027846;28;20201;-69
2021/12/10 12:53:09;;;;;;;51.07;27.37;;;2.20;99.90;;;;;;5027767;28;20311;-70
2021/12/10 12:55:42;;;;;;;51.43;26.40;;;2.20;99.90;;;;;;5027925;28;20196;-70